Time;durP1;ratioP1;P1;durP2;ratioP2;P2;SDS_P1;SDS_P2;PMS_P1;PMS_P2;Temp;Humidity;BMP_temperature;BMP_pressure;BME280_temperature;BME280_humidity;BME280_pressure;Samples;Min_cycle;Max_cycle;Signal;HPM_P1;HPM_P2
2024/01/04 00:00:09;;;;;;;12.65;5.45;;;14.70;99.90;;;;;;5128313;27;20140;-63
2024/01/04 00:02:35;;;;;;;9.40;4.57;;;14.60;99.90;;;;;;5129261;27;20076;-63
2024/01/04 00:05:03;;;;;;;5.22;3.63;;;14.60;99.90;;;;;;5129156;27;20099;-61
2024/01/04 00:07:30;;;;;;;9.25;4.93;;;14.50;99.90;;;;;;5130264;27;20542;-62
2024/01/04 00:09:56;;;;;;;11.68;4.70;;;14.50;99.90;;;;;;5129029;27;20095;-65
2024/01/04 00:12:22;;;;;;;7.45;3.95;;;14.50;99.90;;;;;;5128934;27;20067;-62
2024/01/04 00:14:49;;;;;;;8.07;3.58;;;14.40;99.90;;;;;;5126741;27;20096;-61
2024/01/04 00:17:15;;;;;;;7.38;4.22;;;14.40;99.90;;;;;;5127603;27;20083;-64
2024/01/04 00:19:42;;;;;;;8.55;5.00;;;14.40;99.90;;;;;;5127331;27;20067;-62
2024/01/04 00:22:08;;;;;;;13.45;5.50;;;14.40;99.90;;;;;;5127216;27;20478;-68
2024/01/04 00:24:35;;;;;;;15.88;4.43;;;14.40;99.90;;;;;;5129486;27;20076;-62
2024/01/04 00:27:01;;;;;;;9.27;3.78;;;14.40;99.90;;;;;;5128866;27;20128;-62
2024/01/04 00:29:28;;;;;;;5.78;2.53;;;14.30;99.90;;;;;;5128951;27;20096;-62
2024/01/04 00:31:56;;;;;;;7.00;2.70;;;14.30;99.90;;;;;;5127439;27;20092;-61
2024/01/04 00:34:23;;;;;;;6.55;2.30;;;14.30;99.90;;;;;;5124512;27;20095;-64
2024/01/04 00:36:49;;;;;;;8.85;3.30;;;14.20;99.90;;;;;;5126818;27;20068;-63
2024/01/04 00:39:15;;;;;;;8.70;2.97;;;14.20;99.90;;;;;;5127427;27;20117;-58
2024/01/04 00:41:42;;;;;;;5.10;2.22;;;14.20;99.90;;;;;;5124549;27;20503;-61
2024/01/04 00:44:08;;;;;;;9.10;2.40;;;14.50;99.90;;;;;;5127893;27;20525;-60
2024/01/04 00:46:35;;;;;;;10.82;2.40;;;14.50;99.90;;;;;;5125433;27;20548;-60
2024/01/04 00:49:04;;;;;;;12.07;2.85;;;14.50;99.90;;;;;;5128254;27;20122;-60
2024/01/04 00:51:30;;;;;;;11.45;3.33;;;14.40;99.90;;;;;;5128805;27;20076;-62
2024/01/04 00:53:57;;;;;;;17.98;4.53;;;14.40;99.90;;;;;;5133535;27;20138;-60
2024/01/04 00:56:24;;;;;;;15.35;4.25;;;14.40;99.90;;;;;;5132299;27;20063;-60
2024/01/04 00:58:50;;;;;;;11.43;3.40;;;14.30;99.90;;;;;;5129072;27;20159;-61
2024/01/04 01:01:17;;;;;;;13.38;3.25;;;14.20;99.90;;;;;;5125407;27;20141;-60
2024/01/04 01:03:43;;;;;;;13.60;3.15;;;14.20;99.90;;;;;;5127698;27;20068;-63
2024/01/04 01:06:13;;;;;;;12.85;3.45;;;14.20;99.90;;;;;;5126258;27;20494;-60
2024/01/04 01:08:39;;;;;;;19.02;3.50;;;14.40;99.90;;;;;;5127848;27;20104;-59
2024/01/04 01:11:06;;;;;;;11.90;2.50;;;14.40;99.90;;;;;;5125091;27;20113;-59
2024/01/04 01:13:32;;;;;;;11.32;2.60;;;14.50;99.90;;;;;;5127281;27;20540;-51
2024/01/04 01:15:59;;;;;;;9.63;2.42;;;14.60;99.90;;;;;;5127722;27;20546;-58
2024/01/04 01:18:25;;;;;;;10.82;2.70;;;14.60;99.90;;;;;;5108475;27;20087;-44
2024/01/04 01:20:52;;;;;;;10.50;2.08;;;14.60;99.90;;;;;;5127335;27;20112;-48
2024/01/04 01:23:18;;;;;;;13.88;2.70;;;14.70;99.90;;;;;;5125174;27;20076;-50
2024/01/04 01:25:45;;;;;;;9.60;2.38;;;14.60;99.90;;;;;;5128076;27;20518;-49
2024/01/04 01:28:11;;;;;;;11.15;2.67;;;14.60;99.90;;;;;;5127401;27;20658;-50
2024/01/04 01:30:38;;;;;;;9.00;2.33;;;14.50;99.90;;;;;;5125959;27;20601;-48
2024/01/04 01:33:04;;;;;;;9.48;2.47;;;14.50;99.90;;;;;;5126051;27;20121;-45
2024/01/04 01:35:31;;;;;;;8.20;2.67;;;14.40;99.90;;;;;;5128020;27;20079;-53
2024/01/04 01:37:57;;;;;;;11.82;2.42;;;14.40;99.90;;;;;;5127151;27;20099;-49
2024/01/04 01:40:24;;;;;;;8.18;2.40;;;14.40;99.90;;;;;;5126842;27;20138;-47
2024/01/04 01:42:50;;;;;;;10.43;2.22;;;14.30;99.90;;;;;;5128282;27;20067;-44
2024/01/04 01:45:17;;;;;;;7.65;2.45;;;14.30;99.90;;;;;;5109479;27;20435;-49
2024/01/04 01:47:47;;;;;;;12.27;6.40;;;14.30;99.90;;;;;;5127275;27;20080;-50
2024/01/04 01:50:16;;;;;;;11.75;2.72;;;14.30;99.90;;;;;;5127904;27;20095;-53
2024/01/04 01:52:44;;;;;;;10.57;3.45;;;14.30;99.90;;;;;;5124248;27;20167;-51
2024/01/04 01:55:11;;;;;;;17.80;6.85;;;14.20;99.90;;;;;;5126692;27;20171;-53
2024/01/04 01:57:37;;;;;;;16.23;5.97;;;14.20;99.90;;;;;;5127350;27;20068;-49
2024/01/04 02:00:05;;;;;;;9.73;2.90;;;14.30;99.90;;;;;;5125594;27;20533;-52
2024/01/04 02:02:33;;;;;;;14.63;3.75;;;14.30;99.90;;;;;;5126301;28;20068;-48
2024/01/04 02:05:01;;;;;;;11.50;3.08;;;14.40;99.90;;;;;;5126980;28;20094;-46
2024/01/04 02:07:27;;;;;;;11.38;2.80;;;14.40;99.90;;;;;;5109054;28;20116;-46
2024/01/04 02:09:54;;;;;;;24.75;5.72;;;14.40;99.90;;;;;;5122458;28;20091;-62
2024/01/04 02:12:20;;;;;;;20.98;4.57;;;14.70;99.90;;;;;;5127195;28;20761;-61
2024/01/04 02:14:51;;;;;;;21.60;3.75;;;15.40;99.80;;;;;;5125964;28;20590;-65
2024/01/04 02:17:18;;;;;;;12.10;3.55;;;15.50;99.20;;;;;;5126943;28;20158;-61
2024/01/04 02:19:46;;;;;;;13.40;3.90;;;16.00;99.20;;;;;;5126214;28;20136;-62
2024/01/04 02:22:14;;;;;;;9.95;4.30;;;16.30;98.00;;;;;;5126634;28;20076;-64
2024/01/04 02:24:41;;;;;;;14.40;3.05;;;16.50;97.20;;;;;;5125979;28;20072;-61
2024/01/04 02:27:07;;;;;;;12.73;3.45;;;16.30;97.10;;;;;;5126863;28;20095;-63
2024/01/04 02:29:34;;;;;;;15.02;3.67;;;16.20;97.40;;;;;;5124214;28;20110;-61
2024/01/04 02:32:00;;;;;;;14.02;3.80;;;15.90;97.80;;;;;;5124091;28;20108;-62
2024/01/04 02:34:26;;;;;;;12.25;3.75;;;16.10;97.80;;;;;;5104536;28;20080;-62
2024/01/04 02:36:53;;;;;;;12.10;3.40;;;16.10;97.50;;;;;;5127513;28;20063;-62
2024/01/04 02:39:19;;;;;;;14.68;3.72;;;16.30;97.30;;;;;;5126161;28;20440;-62
2024/01/04 02:41:47;;;;;;;10.20;3.53;;;16.10;97.30;;;;;;5128455;28;20076;-61
2024/01/04 02:44:13;;;;;;;20.05;5.82;;;16.10;97.50;;;;;;5126629;28;20518;-61
2024/01/04 02:46:40;;;;;;;17.02;6.95;;;16.30;97.20;;;;;;5127580;28;20205;-62
2024/01/04 02:49:07;;;;;;;13.25;4.28;;;16.10;97.40;;;;;;5125124;28;20515;-62
2024/01/04 02:51:33;;;;;;;10.70;3.72;;;16.30;97.60;;;;;;5123942;28;20072;-62
2024/01/04 02:54:00;;;;;;;11.35;3.95;;;16.00;97.40;;;;;;5126093;28;20111;-61
2024/01/04 02:56:27;;;;;;;18.85;3.47;;;16.10;98.40;;;;;;5128295;28;20124;-63
2024/01/04 02:58:53;;;;;;;17.85;3.45;;;16.00;99.00;;;;;;5127685;28;20083;-63
2024/01/04 03:01:23;;;;;;;15.05;3.97;;;15.90;98.90;;;;;;5126285;28;20083;-61
2024/01/04 03:03:55;;;;;;;10.23;3.58;;;16.10;98.90;;;;;;5126262;28;20082;-61
2024/01/04 03:06:27;;;;;;;13.80;3.92;;;16.00;98.40;;;;;;5126174;28;20293;-61
2024/01/04 03:08:54;;;;;;;12.10;3.78;;;16.00;98.80;;;;;;5126490;27;20233;-61
2024/01/04 03:11:20;;;;;;;14.82;4.20;;;15.90;99.50;;;;;;5127960;27;20095;-61
2024/01/04 03:13:47;;;;;;;20.35;4.38;;;15.50;99.00;;;;;;5130416;27;20076;-64
2024/01/04 03:16:15;;;;;;;16.40;4.28;;;15.40;99.60;;;;;;5129258;27;20113;-61
2024/01/04 03:18:41;;;;;;;16.00;4.88;;;15.30;99.30;;;;;;5129973;27;20087;-62
2024/01/04 03:21:11;;;;;;;21.08;5.63;;;15.20;99.20;;;;;;5129269;27;20482;-61
2024/01/04 03:23:37;;;;;;;19.35;4.80;;;15.30;99.50;;;;;;5128997;27;20072;-60
2024/01/04 03:26:04;;;;;;;19.15;4.80;;;15.20;99.10;;;;;;5129714;27;20529;-61
2024/01/04 03:28:31;;;;;;;19.48;4.75;;;15.30;99.00;;;;;;5129011;27;20186;-61
2024/01/04 03:30:57;;;;;;;16.20;3.90;;;15.30;98.80;;;;;;5125938;27;20091;-63
2024/01/04 03:33:23;;;;;;;10.70;3.00;;;15.00;98.60;;;;;;5129677;27;20124;-62
2024/01/04 03:35:50;;;;;;;17.17;2.67;;;14.90;98.50;;;;;;5130659;27;20163;-61
2024/01/04 03:38:16;;;;;;;12.43;2.30;;;14.90;98.50;;;;;;5128412;27;20079;-63
2024/01/04 03:40:43;;;;;;;14.52;2.58;;;15.00;98.30;;;;;;5130056;27;20132;-61
2024/01/04 03:43:09;;;;;;;18.33;5.00;;;14.90;97.60;;;;;;5130328;27;20079;-62
2024/01/04 03:45:36;;;;;;;16.17;2.60;;;14.90;97.60;;;;;;5130828;27;20085;-64
2024/01/04 03:48:02;;;;;;;14.48;2.38;;;15.00;97.20;;;;;;5110713;27;20107;-60
2024/01/04 03:50:29;;;;;;;11.77;2.50;;;15.10;97.20;;;;;;5127698;27;20448;-61
2024/01/04 03:52:55;;;;;;;17.45;2.65;;;15.00;97.20;;;;;;5128650;27;20117;-60
2024/01/04 03:55:21;;;;;;;16.67;2.63;;;15.10;97.30;;;;;;5128568;27;20076;-60
2024/01/04 03:57:50;;;;;;;8.00;2.13;;;15.00;97.40;;;;;;5129070;27;20161;-59
2024/01/04 04:00:17;;;;;;;9.23;2.72;;;14.90;97.30;;;;;;5129675;27;20418;-59
2024/01/04 04:02:44;;;;;;;16.23;3.30;;;15.00;97.10;;;;;;5126453;27;20076;-59
2024/01/04 04:05:10;;;;;;;12.05;2.72;;;14.90;97.20;;;;;;5127689;27;20104;-59
2024/01/04 04:07:37;;;;;;;8.55;2.40;;;15.00;97.10;;;;;;5130579;27;20144;-59
2024/01/04 04:10:03;;;;;;;17.13;2.67;;;14.90;97.20;;;;;;5108661;27;20111;-61
2024/01/04 04:12:30;;;;;;;10.30;3.08;;;15.00;97.50;;;;;;5129283;27;20071;-60
2024/01/04 04:14:56;;;;;;;11.75;2.90;;;14.90;97.70;;;;;;5129972;27;20149;-60
2024/01/04 04:17:24;;;;;;;10.27;2.95;;;14.80;97.40;;;;;;5129829;27;20067;-60
2024/01/04 04:19:54;;;;;;;10.43;2.45;;;14.70;97.90;;;;;;5129070;27;20095;-62
2024/01/04 04:22:20;;;;;;;8.30;3.08;;;14.70;97.90;;;;;;5129462;27;20537;-60
2024/01/04 04:24:46;;;;;;;11.10;3.70;;;14.70;98.20;;;;;;5127732;27;20549;-60
2024/01/04 04:27:13;;;;;;;15.23;3.83;;;14.70;98.50;;;;;;5129217;27;20082;-60
2024/01/04 04:29:40;;;;;;;14.00;4.45;;;14.60;99.20;;;;;;5128706;27;20190;-61
2024/01/04 04:32:08;;;;;;;10.70;3.50;;;14.40;99.50;;;;;;5130001;27;20090;-60
2024/01/04 04:34:35;;;;;;;9.38;3.38;;;14.40;99.90;;;;;;5125802;27;20067;-64
2024/01/04 04:37:03;;;;;;;14.38;3.40;;;14.40;99.90;;;;;;5129526;27;20080;-61
2024/01/04 04:39:29;;;;;;;11.82;2.58;;;14.50;99.90;;;;;;5128019;27;20470;-62
2024/01/04 04:41:56;;;;;;;8.57;2.13;;;14.40;99.90;;;;;;5127484;27;20471;-63
2024/01/04 04:44:22;;;;;;;6.78;2.40;;;14.20;99.90;;;;;;5129399;27;20068;-60
2024/01/04 04:46:49;;;;;;;7.38;2.30;;;14.10;99.90;;;;;;5128617;27;20083;-61
2024/01/04 04:49:15;;;;;;;10.20;3.65;;;13.80;99.90;;;;;;5108347;27;20152;-61
2024/01/04 04:51:48;;;;;;;13.10;2.97;;;13.70;99.90;;;;;;5125715;27;20514;-63
2024/01/04 04:54:17;;;;;;;9.32;2.20;;;13.70;99.90;;;;;;5125046;27;20574;-64
2024/01/04 04:56:44;;;;;;;6.82;1.88;;;13.60;99.90;;;;;;5109116;27;20317;-62
2024/01/04 04:59:12;;;;;;;8.48;2.72;;;13.50;99.90;;;;;;5108427;27;20075;-60
2024/01/04 05:01:40;;;;;;;12.00;3.13;;;13.50;99.90;;;;;;5108496;27;20083;-64
2024/01/04 05:04:08;;;;;;;12.38;4.28;;;13.50;99.90;;;;;;5128538;27;20068;-64
2024/01/04 05:06:34;;;;;;;15.20;4.20;;;13.50;99.90;;;;;;5129151;27;20106;-60
2024/01/04 05:09:01;;;;;;;10.73;4.32;;;13.50;99.90;;;;;;5107977;27;20106;-63
2024/01/04 05:11:27;;;;;;;10.57;3.65;;;13.40;99.90;;;;;;5125502;27;20141;-59
2024/01/04 05:13:53;;;;;;;8.13;3.55;;;13.40;99.90;;;;;;5127607;27;20539;-60
2024/01/04 05:16:19;;;;;;;;;;;13.40;99.90;;;;;;5128986;27;20118;-64
2024/01/04 05:18:46;;;;;;;12.98;2.97;;;13.40;99.90;;;;;;5128990;27;19963;-60
2024/01/04 05:21:13;;;;;;;7.00;2.83;;;13.30;99.90;;;;;;5129098;27;20091;-60
2024/01/04 05:23:39;;;;;;;8.55;2.67;;;13.30;99.90;;;;;;5125940;27;20103;-60
2024/01/04 05:26:06;;;;;;;6.93;2.72;;;13.40;99.90;;;;;;5126071;27;20080;-60
2024/01/04 05:28:32;;;;;;;17.83;3.60;;;13.40;99.90;;;;;;5124311;27;20103;-62
2024/01/04 05:30:59;;;;;;;9.75;3.25;;;13.40;99.90;;;;;;5127832;27;20179;-60
2024/01/04 05:33:25;;;;;;;8.55;3.28;;;13.40;99.90;;;;;;5126607;27;20445;-60
2024/01/04 05:35:52;;;;;;;14.25;3.20;;;13.40;99.90;;;;;;5124670;27;20496;-59
2024/01/04 05:38:18;;;;;;;10.23;2.70;;;13.40;99.90;;;;;;5126540;27;20151;-61
2024/01/04 05:40:44;;;;;;;9.73;2.60;;;13.50;99.90;;;;;;5127645;27;20156;-57
2024/01/04 05:43:11;;;;;;;7.30;2.10;;;13.60;99.90;;;;;;5127747;27;20075;-55
2024/01/04 05:45:37;;;;;;;10.68;2.22;;;13.70;99.90;;;;;;5127405;27;20072;-56
2024/01/04 05:48:04;;;;;;;5.60;1.98;;;13.80;99.90;;;;;;5126313;27;20163;-59
2024/01/04 05:50:30;;;;;;;15.98;4.45;;;13.90;99.90;;;;;;5125372;27;20072;-57
2024/01/04 05:52:58;;;;;;;7.43;1.83;;;13.90;99.90;;;;;;5127885;27;20583;-61
2024/01/04 05:55:24;;;;;;;9.80;1.90;;;13.90;99.90;;;;;;5127182;27;20079;-56
2024/01/04 05:57:51;;;;;;;7.38;2.08;;;14.00;99.90;;;;;;5127802;27;20083;-53
2024/01/04 06:00:17;;;;;;;7.57;2.47;;;14.10;99.90;;;;;;5122207;27;20068;-60
2024/01/04 06:02:44;;;;;;;5.20;1.73;;;14.00;99.90;;;;;;5125482;27;20152;-54
2024/01/04 06:05:10;;;;;;;9.55;2.63;;;14.00;99.90;;;;;;5126198;28;20123;-60
2024/01/04 06:07:37;;;;;;;6.20;2.20;;;14.00;99.90;;;;;;5127839;28;21641;-54
2024/01/04 06:10:04;;;;;;;10.93;2.50;;;14.00;99.90;;;;;;5125185;28;20126;-60
2024/01/04 06:12:31;;;;;;;10.63;2.17;;;13.90;99.90;;;;;;5127564;28;20514;-58
2024/01/04 06:14:57;;;;;;;7.47;2.38;;;13.90;99.90;;;;;;5125091;28;20166;-54
2024/01/04 06:17:23;;;;;;;5.28;1.95;;;13.90;99.90;;;;;;5128255;28;20088;-57
2024/01/04 06:19:50;;;;;;;7.10;2.65;;;13.90;99.90;;;;;;5127147;28;20162;-56
2024/01/04 06:22:16;;;;;;;7.38;2.05;;;13.90;99.90;;;;;;5127082;28;20174;-59
2024/01/04 06:24:46;;;;;;;8.50;2.38;;;13.90;99.90;;;;;;5125851;28;20105;-54
2024/01/04 06:27:12;;;;;;;9.35;2.72;;;13.90;99.90;;;;;;5127614;28;20579;-53
2024/01/04 06:29:39;;;;;;;7.03;2.55;;;13.80;99.90;;;;;;5107809;28;20510;-57
2024/01/04 06:32:05;;;;;;;7.22;2.35;;;13.80;99.90;;;;;;5128881;28;20574;-54
2024/01/04 06:34:32;;;;;;;7.40;2.38;;;13.80;99.90;;;;;;5126355;28;20442;-56
2024/01/04 06:36:58;;;;;;;9.63;2.35;;;13.70;99.90;;;;;;5125046;28;20075;-54
2024/01/04 06:39:26;;;;;;;10.43;2.72;;;13.80;99.90;;;;;;5125723;28;20079;-53
2024/01/04 06:41:52;;;;;;;11.20;4.80;;;13.70;99.90;;;;;;5126471;28;20075;-59
2024/01/04 06:44:19;;;;;;;8.75;2.38;;;13.70;99.90;;;;;;5130755;27;20064;-54
2024/01/04 06:46:45;;;;;;;11.45;4.78;;;13.70;99.90;;;;;;5130998;27;20076;-51
2024/01/04 06:49:12;;;;;;;7.75;2.20;;;13.60;99.90;;;;;;5130156;27;20564;-54
2024/01/04 06:51:38;;;;;;;15.20;3.00;;;13.50;99.90;;;;;;5131515;27;20534;-52
2024/01/04 06:54:04;;;;;;;11.65;4.22;;;13.50;99.90;;;;;;5131921;27;20195;-52
2024/01/04 06:56:31;;;;;;;7.65;2.90;;;13.50;99.90;;;;;;5131853;27;20075;-53
2024/01/04 06:58:57;;;;;;;11.48;3.30;;;13.50;99.90;;;;;;5129658;27;20072;-50
2024/01/04 07:01:24;;;;;;;9.98;3.38;;;13.50;99.90;;;;;;5132829;27;20076;-55
2024/01/04 07:03:50;;;;;;;9.13;2.85;;;13.40;99.90;;;;;;5130799;27;20435;-55
2024/01/04 07:06:17;;;;;;;8.65;2.90;;;13.50;99.90;;;;;;5131748;27;20068;-57
2024/01/04 07:08:43;;;;;;;12.43;2.55;;;13.50;99.90;;;;;;5111812;27;20147;-56
2024/01/04 07:11:10;;;;;;;7.25;2.03;;;13.40;99.90;;;;;;5131786;27;20521;-56
2024/01/04 07:13:36;;;;;;;7.25;1.70;;;13.40;99.90;;;;;;5129966;27;20083;-55
2024/01/04 07:16:06;;;;;;;8.40;2.03;;;13.40;99.90;;;;;;5132115;27;20162;-56
2024/01/04 07:18:32;;;;;;;6.18;2.05;;;13.50;99.90;;;;;;5129612;27;20079;-52
2024/01/04 07:21:00;;;;;;;9.10;2.13;;;13.60;99.90;;;;;;5132009;27;20075;-57
2024/01/04 07:23:27;;;;;;;6.63;2.22;;;13.60;99.90;;;;;;5130810;27;20173;-55
2024/01/04 07:25:55;;;;;;;7.28;2.13;;;13.60;99.90;;;;;;5130012;27;20530;-56
2024/01/04 07:28:21;;;;;;;7.30;2.10;;;13.60;99.90;;;;;;5127766;27;20108;-55
2024/01/04 07:30:48;;;;;;;15.43;2.15;;;13.60;99.90;;;;;;5128971;27;20068;-56
2024/01/04 07:33:15;;;;;;;11.27;2.00;;;13.60;99.90;;;;;;5112067;27;20071;-61
2024/01/04 07:35:41;;;;;;;11.88;2.65;;;13.60;99.90;;;;;;5130512;27;20068;-56
2024/01/04 07:38:08;;;;;;;7.75;1.80;;;13.60;99.90;;;;;;5129570;27;20091;-57
2024/01/04 07:40:34;;;;;;;6.82;2.05;;;13.50;99.90;;;;;;5107569;27;20542;-56
2024/01/04 07:43:01;;;;;;;9.98;2.05;;;13.40;99.90;;;;;;5127307;27;20448;-54
2024/01/04 07:45:27;;;;;;;;;;;13.40;99.90;;;;;;5129562;27;20120;-55
2024/01/04 07:47:53;;;;;;;9.07;2.22;;;13.30;99.90;;;;;;5128092;27;19956;-55
2024/01/04 07:50:20;;;;;;;7.35;2.28;;;13.30;99.90;;;;;;5128420;27;20087;-55
2024/01/04 07:52:46;;;;;;;8.18;1.80;;;13.20;99.90;;;;;;5130083;27;20111;-55
2024/01/04 07:55:13;;;;;;;6.88;1.52;;;13.20;99.90;;;;;;5110759;27;20067;-56
2024/01/04 07:57:39;;;;;;;7.45;1.73;;;13.10;99.90;;;;;;5129430;27;21234;-57
2024/01/04 08:00:08;;;;;;;8.15;2.00;;;13.10;99.90;;;;;;5124572;27;20112;-56
2024/01/04 08:02:35;;;;;;;7.10;2.38;;;13.00;99.90;;;;;;5127284;27;20083;-51
2024/01/04 08:05:01;;;;;;;9.35;2.20;;;13.00;99.90;;;;;;5126973;27;20076;-56
2024/01/04 08:07:28;;;;;;;8.75;2.35;;;13.00;99.90;;;;;;5129833;27;20574;-54
2024/01/04 08:09:55;;;;;;;7.45;2.20;;;13.00;99.90;;;;;;5109401;27;20564;-57
2024/01/04 08:12:22;;;;;;;9.57;2.60;;;12.90;99.90;;;;;;5129359;27;20068;-60
2024/01/04 08:14:48;;;;;;;;;;;12.80;99.90;;;;;;5129147;27;20145;-54
2024/01/04 08:17:14;;;;;;;7.18;2.00;;;12.80;99.90;;;;;;5128420;27;19991;-56
2024/01/04 08:19:41;;;;;;;6.80;2.30;;;12.70;99.90;;;;;;5128410;27;20098;-51
2024/01/04 08:22:07;;;;;;;10.30;2.97;;;12.70;99.90;;;;;;5129982;27;20099;-55
2024/01/04 08:24:34;;;;;;;8.00;3.13;;;12.60;99.90;;;;;;5128555;27;20071;-59
2024/01/04 08:27:01;;;;;;;9.48;3.05;;;12.60;99.90;;;;;;5127865;27;20070;-53
2024/01/04 08:29:27;;;;;;;10.75;3.10;;;12.60;99.90;;;;;;5129675;27;20199;-55
2024/01/04 08:31:54;;;;;;;8.50;3.13;;;12.50;99.90;;;;;;5129439;27;20064;-53
2024/01/04 08:34:20;;;;;;;10.02;3.03;;;12.30;99.90;;;;;;5128320;27;20076;-58
2024/01/04 08:36:46;;;;;;;12.57;3.00;;;12.20;99.90;;;;;;5128854;27;20166;-55
2024/01/04 08:39:13;;;;;;;7.32;2.30;;;12.10;99.90;;;;;;5128201;27;20076;-52
2024/01/04 08:41:40;;;;;;;9.13;2.67;;;12.10;99.90;;;;;;5127430;27;20159;-52
2024/01/04 08:44:06;;;;;;;9.60;2.45;;;11.90;99.90;;;;;;5129732;27;20137;-55
2024/01/04 08:46:37;;;;;;;8.25;2.50;;;11.80;99.90;;;;;;5127381;27;20076;-57
2024/01/04 08:49:04;;;;;;;15.50;8.93;;;11.90;99.90;;;;;;5129479;27;20557;-59
2024/01/04 08:51:31;;;;;;;8.85;1.92;;;11.80;99.90;;;;;;5128788;27;20590;-54
2024/01/04 08:53:57;;;;;;;10.77;1.98;;;11.70;99.90;;;;;;5128454;27;20139;-54
2024/01/04 08:56:24;;;;;;;7.10;1.83;;;11.70;99.90;;;;;;5127058;27;20158;-53
2024/01/04 08:58:50;;;;;;;6.13;1.75;;;11.70;99.90;;;;;;5127511;27;20075;-59
2024/01/04 09:01:17;;;;;;;8.02;2.00;;;11.70;99.90;;;;;;5124601;27;20078;-62
2024/01/04 09:03:43;;;;;;;11.57;1.95;;;11.70;99.90;;;;;;5129193;27;20083;-55
2024/01/04 09:06:12;;;;;;;8.63;2.35;;;11.60;99.90;;;;;;5125171;27;20086;-60
2024/01/04 09:08:39;;;;;;;10.10;2.25;;;11.70;99.90;;;;;;5127692;27;20100;-51
2024/01/04 09:11:06;;;;;;;7.32;1.73;;;11.70;99.90;;;;;;5128871;27;20071;-55
2024/01/04 09:13:33;;;;;;;8.13;1.90;;;11.70;99.90;;;;;;5126890;27;20076;-55
2024/01/04 09:15:59;;;;;;;6.55;1.70;;;11.60;99.90;;;;;;5126540;27;20076;-52
2024/01/04 09:18:26;;;;;;;9.85;2.10;;;11.50;99.90;;;;;;5127241;27;20108;-54
2024/01/04 09:20:52;;;;;;;6.72;2.15;;;11.40;99.90;;;;;;5128112;27;20079;-55
2024/01/04 09:23:19;;;;;;;11.15;2.33;;;11.40;99.90;;;;;;5127566;27;20079;-55
2024/01/04 09:25:45;;;;;;;6.88;2.53;;;11.40;99.90;;;;;;5126301;27;20071;-54
2024/01/04 09:28:12;;;;;;;10.02;2.58;;;11.20;99.90;;;;;;5127508;27;20076;-56
2024/01/04 09:30:38;;;;;;;10.15;2.70;;;11.00;99.90;;;;;;5125278;27;20123;-55
2024/01/04 09:33:07;;;;;;;10.50;3.05;;;11.00;99.90;;;;;;5125979;27;20106;-56
2024/01/04 09:35:33;;;;;;;11.63;2.67;;;10.90;99.90;;;;;;5122991;27;20554;-55
2024/01/04 09:38:00;;;;;;;8.82;2.83;;;10.90;99.90;;;;;;5126366;27;20536;-54
2024/01/04 09:40:27;;;;;;;14.20;3.22;;;10.80;99.90;;;;;;5109542;27;20075;-62
2024/01/04 09:42:55;;;;;;;6.60;2.58;;;10.80;99.90;;;;;;5132615;27;20068;-57
2024/01/04 09:45:23;;;;;;;7.85;2.40;;;10.60;99.90;;;;;;5130911;27;20072;-58
2024/01/04 09:47:50;;;;;;;7.85;2.22;;;10.60;99.90;;;;;;5126853;27;20097;-55
2024/01/04 09:50:18;;;;;;;7.07;2.72;;;10.70;99.90;;;;;;5108505;27;20099;-54
2024/01/04 09:52:45;;;;;;;6.90;2.55;;;10.70;99.90;;;;;;5127839;27;20122;-55
2024/01/04 09:55:12;;;;;;;11.80;2.65;;;10.50;99.90;;;;;;5124393;27;20079;-55
2024/01/04 09:57:39;;;;;;;11.02;2.67;;;10.50;99.90;;;;;;5123268;27;20075;-55
2024/01/04 10:00:08;;;;;;;13.57;3.22;;;10.50;99.90;;;;;;5126674;27;20071;-55
2024/01/04 10:02:40;;;;;;;10.40;3.00;;;10.50;99.90;;;;;;5126842;27;20080;-54
2024/01/04 10:05:09;;;;;;;11.65;3.00;;;10.50;99.90;;;;;;5125782;27;20082;-54
2024/01/04 10:07:43;;;;;;;8.05;2.92;;;10.50;99.90;;;;;;5125154;27;20167;-53
2024/01/04 10:10:17;;;;;;;11.02;3.05;;;10.50;99.90;;;;;;5125913;28;20099;-53
2024/01/04 10:12:44;;;;;;;12.93;3.20;;;10.50;99.90;;;;;;5125685;28;20296;-56
2024/01/04 10:15:11;;;;;;;11.50;3.17;;;10.40;99.90;;;;;;5126302;28;20494;-52
2024/01/04 10:17:41;;;;;;;9.63;3.13;;;10.30;99.90;;;;;;5125011;28;20205;-54
2024/01/04 10:20:09;;;;;;;12.95;3.60;;;10.40;99.90;;;;;;5131249;27;20079;-57
2024/01/04 10:22:35;;;;;;;11.45;3.75;;;10.40;99.90;;;;;;5129125;27;20083;-51
2024/01/04 10:25:13;;;;;;;15.43;3.75;;;10.30;99.90;;;;;;5128673;27;20084;-55
2024/01/04 10:27:40;;;;;;;10.23;3.33;;;10.30;99.90;;;;;;5129842;27;20098;-53
2024/01/04 10:30:07;;;;;;;13.07;3.42;;;10.20;99.90;;;;;;5127847;27;20096;-52
2024/01/04 10:32:34;;;;;;;13.70;3.72;;;10.20;99.90;;;;;;5128436;27;20078;-57
2024/01/04 10:35:08;;;;;;;12.80;4.32;;;10.10;99.90;;;;;;5130097;27;20080;-55
2024/01/04 10:37:35;;;;;;;15.35;4.72;;;10.00;99.90;;;;;;5131144;27;20089;-55
2024/01/04 10:40:03;;;;;;;10.05;4.15;;;10.10;99.90;;;;;;5111986;27;20119;-53
2024/01/04 10:42:31;;;;;;;22.20;5.93;;;10.00;99.90;;;;;;5129452;27;20125;-55
2024/01/04 10:44:59;;;;;;;11.57;4.65;;;9.90;99.90;;;;;;5130907;27;20225;-52
2024/01/04 10:47:27;;;;;;;16.55;5.72;;;9.80;99.90;;;;;;5130215;27;20099;-55
2024/01/04 10:50:00;;;;;;;11.55;5.32;;;10.00;99.90;;;;;;5129425;27;20123;-54
2024/01/04 10:52:31;;;;;;;17.58;5.55;;;10.00;99.90;;;;;;5130786;27;20083;-56
2024/01/04 10:54:59;;;;;;;15.82;5.70;;;10.00;99.90;;;;;;5127472;27;20593;-56
2024/01/04 10:57:28;;;;;;;16.75;6.30;;;10.00;99.90;;;;;;5129266;27;20071;-59
2024/01/04 10:59:56;;;;;;;13.95;6.10;;;9.80;99.90;;;;;;5129843;27;20491;-54
2024/01/04 11:02:24;;;;;;;16.35;6.10;;;9.80;99.90;;;;;;5129197;27;20561;-56
2024/01/04 11:04:52;;;;;;;15.55;5.90;;;9.70;99.90;;;;;;5129216;27;20075;-54
2024/01/04 11:07:19;;;;;;;15.80;6.13;;;9.60;99.90;;;;;;5128544;27;20507;-55
2024/01/04 11:09:46;;;;;;;12.10;5.22;;;9.60;99.90;;;;;;5130442;27;21313;-56
2024/01/04 11:12:14;;;;;;;13.68;5.15;;;9.70;99.90;;;;;;5129203;27;21087;-56
2024/01/04 11:14:41;;;;;;;15.70;6.05;;;9.70;99.90;;;;;;5129789;27;20083;-56
2024/01/04 11:17:26;;;;;;;16.50;6.22;;;9.60;99.90;;;;;;5129522;27;20063;-60
2024/01/04 11:20:20;;;;;;;13.57;5.38;;;9.70;99.90;;;;;;5129455;27;20077;-55
2024/01/04 11:22:58;;;;;;;13.45;4.80;;;9.50;99.90;;;;;;5130020;27;20072;-62
2024/01/04 11:25:44;;;;;;;11.80;5.47;;;9.50;99.90;;;;;;5109704;27;20064;-57
2024/01/04 11:28:11;;;;;;;12.05;4.72;;;9.60;99.90;;;;;;5110349;27;20099;-56
2024/01/04 11:30:38;;;;;;;11.20;5.03;;;9.50;99.90;;;;;;5127359;27;20414;-55
2024/01/04 11:33:05;;;;;;;10.77;5.10;;;9.40;99.90;;;;;;5130527;27;20086;-51
2024/01/04 11:35:38;;;;;;;13.63;5.13;;;9.50;99.90;;;;;;5127817;27;20120;-57
2024/01/04 11:38:08;;;;;;;12.70;4.88;;;9.50;99.90;;;;;;5127062;27;20075;-56
2024/01/04 11:40:38;;;;;;;16.63;5.55;;;9.50;99.90;;;;;;5128927;27;20083;-57
2024/01/04 11:43:15;;;;;;;13.48;5.35;;;9.50;99.90;;;;;;5127983;27;20071;-55
2024/01/04 11:45:45;;;;;;;13.77;4.80;;;9.50;99.90;;;;;;5127964;27;20068;-58
2024/01/04 11:48:12;;;;;;;17.02;5.80;;;9.50;99.90;;;;;;5128319;27;20119;-55
2024/01/04 11:50:49;;;;;;;12.75;5.35;;;9.50;99.90;;;;;;5129104;27;20076;-53
2024/01/04 11:53:17;;;;;;;12.43;5.50;;;9.50;99.90;;;;;;5128708;27;20122;-55
2024/01/04 11:55:44;;;;;;;15.00;5.43;;;9.40;99.90;;;;;;5128544;27;20120;-57
2024/01/04 11:58:28;;;;;;;13.18;6.03;;;9.30;99.90;;;;;;5126723;27;20490;-56
2024/01/04 12:00:57;;;;;;;13.00;5.40;;;9.30;99.90;;;;;;5111700;27;20553;-61
2024/01/04 12:03:29;;;;;;;17.35;6.28;;;9.30;99.90;;;;;;5129968;27;20072;-56
2024/01/04 12:05:55;;;;;;;13.77;4.80;;;9.40;99.90;;;;;;5125898;27;20072;-56
2024/01/04 12:08:29;;;;;;;10.23;4.65;;;9.20;99.90;;;;;;5124355;27;20122;-55
2024/01/04 12:11:01;;;;;;;14.52;4.82;;;9.20;99.90;;;;;;5128750;27;20072;-55
2024/01/04 12:13:27;;;;;;;15.00;5.22;;;9.10;99.90;;;;;;5125328;27;20188;-56
2024/01/04 12:15:54;;;;;;;12.80;4.68;;;9.10;99.90;;;;;;5128127;27;20155;-55
2024/01/04 12:18:21;;;;;;;9.73;4.40;;;9.00;99.90;;;;;;5127205;27;20087;-58
2024/01/04 12:20:48;;;;;;;12.98;4.60;;;9.10;99.90;;;;;;5129038;27;20131;-54
2024/01/04 12:23:15;;;;;;;10.45;4.05;;;9.10;99.90;;;;;;5127676;27;20079;-54
2024/01/04 12:25:42;;;;;;;12.80;4.43;;;9.10;99.90;;;;;;5127602;27;20068;-60
2024/01/04 12:28:10;;;;;;;10.60;4.35;;;9.10;99.90;;;;;;5127190;27;20073;-53
2024/01/04 12:30:40;;;;;;;11.07;4.50;;;9.10;99.90;;;;;;5122809;27;20100;-56
2024/01/04 12:33:09;;;;;;;10.23;4.50;;;9.20;99.90;;;;;;5128244;27;20490;-56
2024/01/04 12:35:36;;;;;;;9.50;3.72;;;9.20;99.90;;;;;;5126872;27;20099;-55
2024/01/04 12:38:07;;;;;;;9.80;3.90;;;9.10;99.90;;;;;;5092550;27;20095;-57
2024/01/04 12:40:45;;;;;;;13.18;4.15;;;8.90;99.90;;;;;;5126745;27;20072;-60
2024/01/04 12:43:17;;;;;;;21.98;4.30;;;9.00;99.90;;;;;;5126533;27;20084;-57